createdAt,value
2023-01-29T00:00:01.972Z,45.61977584022723
2023-01-29T00:15:01.613Z,45.55226867127096
2023-01-29T00:30:02.287Z,45.76688976324192
2023-01-29T00:45:01.945Z,45.4394761449641
2023-01-29T01:00:01.656Z,45.87173820277687
2023-01-29T01:15:02.279Z,45.76642654570739
2023-01-29T01:30:01.931Z,45.10202684028726
2023-01-29T01:45:01.587Z,45.047990932909926
2023-01-29T02:00:02.232Z,45.2569410051855
2023-01-29T02:15:01.923Z,45.6534404655827
2023-01-29T02:30:01.659Z,45.750939741617614
2023-01-29T02:45:02.340Z,45.429914372804
2023-01-29T03:00:01.991Z,45.398129024082664
2023-01-29T03:15:01.686Z,45.81861613147571
2023-01-29T03:30:01.376Z,45.06533243216596
2023-01-29T03:45:02.011Z,44.81807668678063
2023-01-29T04:00:01.621Z,45.7204048019867
2023-01-29T04:15:02.239Z,45.48746932054959
2023-01-29T04:30:01.960Z,45.127442305778565
2023-01-29T04:45:01.611Z,44.70134558778857
2023-01-29T05:00:02.261Z,44.574692627577924
2023-01-29T05:15:01.912Z,44.858111385804875
2023-01-29T05:30:01.669Z,44.90194961086825
2023-01-29T05:45:01.447Z,45.028518157541676
2023-01-29T06:00:02.188Z,45.588713977372734
2023-01-29T06:15:01.902Z,45.41636752917896
2023-01-29T06:30:01.557Z,45.56301413842146
2023-01-29T06:45:01.353Z,45.86834818079788
2023-01-29T07:00:02.090Z,45.05528922339684
2023-01-29T07:15:01.867Z,45.5689653314395
2023-01-29T07:30:01.722Z,45.594914117497986
2023-01-29T07:45:02.342Z,45.877050930949615
2023-01-29T08:00:01.944Z,45.84735771422556
2023-01-29T08:15:01.588Z,45.834674563190276
2023-01-29T08:30:02.244Z,45.36428700876148
2023-01-29T08:45:01.875Z,45.41489186538362
2023-01-29T09:00:01.504Z,45.27105852484506
2023-01-29T09:15:02.154Z,44.673263218351835
2023-01-29T09:30:01.807Z,44.34006345542625
2023-01-29T09:45:01.438Z,44.22425496109917
2023-01-29T10:00:02.086Z,44.31890083872408
2023-01-29T10:15:01.715Z,44.04253074715381
2023-01-29T10:30:01.375Z,44.44883902546598
2023-01-29T10:45:02.026Z,43.552880904140004
2023-01-29T11:00:01.636Z,43.57527605226337
2023-01-29T11:15:01.404Z,43.30880371762075
2023-01-29T11:30:02.268Z,43.63764762929083
2023-01-29T11:45:01.898Z,43.61630354617794
2023-01-29T12:00:02.534Z,43.78898875140135
2023-01-29T12:15:02.197Z,43.76705414886862
2023-01-29T12:30:01.854Z,43.700385352102465
2023-01-29T12:45:02.500Z,43.7106437229026
2023-01-29T13:00:02.153Z,43.84316260232148
2023-01-29T13:15:01.803Z,43.8310325153047
2023-01-29T13:30:02.472Z,43.83263729135251
2023-01-29T13:45:02.111Z,43.88870236294731
2023-01-29T14:00:01.717Z,44.228294707993484
2023-01-29T14:15:02.368Z,44.556992917583834
2023-01-29T14:30:02.035Z,44.94061801486383
2023-01-29T14:45:01.660Z,45.36250131630684
2023-01-29T15:00:02.259Z,46.15016608135213
2023-01-29T15:15:01.963Z,47.112468066238804
2023-01-29T15:30:01.709Z,48.18425463000376
2023-01-29T15:45:02.396Z,49.14110050049334
2023-01-29T16:00:02.054Z,49.67247816365694
2023-01-29T16:15:01.696Z,49.39957536385746
2023-01-29T16:30:02.333Z,49.38486151743475
2023-01-29T16:45:01.995Z,49.181492375915454
2023-01-29T17:00:01.660Z,49.231444103300916
2023-01-29T17:15:02.333Z,49.32381817617375
2023-01-29T17:30:02.042Z,49.573600848347525
2023-01-29T17:45:01.724Z,50.007689334245796
2023-01-29T18:00:01.366Z,50.29247572428609
2023-01-29T18:15:02.048Z,49.95108527750992
2023-01-29T18:30:01.938Z,50.130041721076346
2023-01-29T18:45:02.176Z,50.007980088863484
2023-01-29T19:00:01.810Z,50.12432137700684
2023-01-29T19:15:01.660Z,50.02093673738379
2023-01-29T19:30:02.551Z,49.69163082605078
2023-01-29T19:45:02.197Z,49.65453436987678
2023-01-29T20:00:01.808Z,49.41364911663554
2023-01-29T20:15:02.448Z,49.43230599415927
2023-01-29T20:30:02.120Z,49.16968224467312
2023-01-29T20:45:01.787Z,48.85607409664101
2023-01-29T21:00:02.444Z,48.83595690102075
2023-01-29T21:15:02.088Z,48.84487365640823
2023-01-29T21:30:01.778Z,48.78557982138454
2023-01-29T21:45:02.432Z,48.75989245630585
2023-01-29T22:00:02.072Z,48.68451136793649
2023-01-29T22:15:01.763Z,48.177214077592105
2023-01-29T22:30:01.437Z,48.30194280610837
2023-01-29T22:45:02.080Z,48.45934305717362
2023-01-29T23:00:01.702Z,48.40073903027428
2023-01-29T23:15:02.365Z,48.354017205010415
2023-01-29T23:30:02.091Z,48.384508858660105
2023-01-29T23:45:01.900Z,48.409456274845326
